Pagrindinis puslapis
METAR-TAF:

METAR-TAF

Oro uostai :

Beaver Creek, Jukonas, Kanada

platuma: 62-25N, ilguma: 140-52W, Aukštis: 649 m

Dabartinis oras

Ataskaita buvo paskelbta 1 valandą ir 12 minutes, ne 21:00 UTC
Vėjas 6 kt iš Šiaurės Vakarų
Temperatūra 7°C
Drėgmė 87%
Slėgis 993 hPa
Matomumas: 32.2 km
Apsiniaukę ne aukštis 1500 ft

METAR: CYXQ 212100Z 31006KT 20SM OVC015 07/05 A2933 RMK SC8 SLP961 DENSITY ALT 2400FT

Laikas: 15:12 (22:12 UTC)


TAF: trūkstamas

Orai ataskaitas ir orų prognozės (METAR, TAF).

turimą stotys yra geltonos ir raudonos taškus žemėlapyje.

Perkelti pele per norėdami pamatyti stoties vardą.

Tada spustelėkite, norėdami matyti oro stebėjimo ir prognozės.

Norėdami pakeisti žemėlapį: spustelėkite ant žalios mygtukų su juodo kryžiaus žemyn,; žalią mygtuką su brūkšneliu, jei norite nutolinti; arba žalių rodyklių gretimoms žemėlapius.


METAR-TAF: